Time;durP1;ratioP1;P1;durP2;ratioP2;P2;SDS_P1;SDS_P2;PMS_P1;PMS_P2;Temp;Humidity;BMP_temperature;BMP_pressure;BME280_temperature;BME280_humidity;BME280_pressure;Samples;Min_cycle;Max_cycle;Signal;HPM_P1;HPM_P2
2021/12/19 00:00:21;;;;;;;5.35;2.47;;;9.10;75.80;;;;;;5112472;27;20039;-62
2021/12/19 00:11:07;;;;;;;2.90;1.80;;;9.00;75.40;;;;;;5107548;28;20044;-62
2021/12/19 00:13:34;;;;;;;2.72;1.60;;;9.00;75.60;;;;;;5095123;28;20546;-63
2021/12/19 00:16:02;;;;;;;1.77;1.42;;;9.10;75.90;;;;;;5109627;28;20039;-62
2021/12/19 00:18:30;;;;;;;3.10;1.70;;;9.10;76.50;;;;;;5103603;27;20038;-62
2021/12/19 00:20:57;;;;;;;3.20;1.52;;;9.10;77.20;;;;;;5104710;27;20032;-63
2021/12/19 00:23:38;;;;;;;4.65;1.75;;;9.10;77.50;;;;;;5086436;28;20071;-62
2021/12/19 00:26:06;;;;;;;2.58;1.45;;;9.10;77.70;;;;;;5104329;28;20043;-62
2021/12/19 00:28:34;;;;;;;1.75;1.20;;;9.10;77.40;;;;;;5106542;28;20052;-63
2021/12/19 00:31:03;;;;;;;3.40;1.75;;;9.10;77.10;;;;;;5113272;27;20481;-62
2021/12/19 00:33:30;;;;;;;2.42;1.60;;;9.00;76.80;;;;;;5130287;27;20035;-62
2021/12/19 00:35:58;;;;;;;4.80;1.95;;;9.00;76.50;;;;;;5116803;27;20035;-62
2021/12/19 00:38:26;;;;;;;4.35;1.90;;;9.10;76.80;;;;;;5114394;27;20369;-62
2021/12/19 00:40:54;;;;;;;2.42;1.50;;;9.10;77.20;;;;;;5102189;28;20520;-62
2021/12/19 00:43:35;;;;;;;3.28;1.60;;;9.10;77.10;;;;;;5097506;28;20043;-62
2021/12/19 00:46:07;;;;;;;4.50;1.75;;;9.10;77.10;;;;;;5112246;28;20359;-62
2021/12/19 00:48:45;;;;;;;5.93;2.05;;;9.00;76.60;;;;;;5106089;28;20444;-63
2021/12/19 00:51:15;;;;;;;2.78;1.60;;;9.00;76.10;;;;;;5121810;27;20039;-62
2021/12/19 00:53:45;;;;;;;2.47;1.48;;;9.00;75.60;;;;;;5097634;28;20044;-62
2021/12/19 00:56:14;;;;;;;3.65;1.65;;;9.00;76.00;;;;;;5088060;28;20050;-62
2021/12/19 00:58:43;;;;;;;3.22;2.10;;;8.90;76.40;;;;;;5113064;28;20458;-62
2021/12/19 01:01:13;;;;;;;2.25;1.67;;;8.90;76.20;;;;;;5090031;28;20036;-62
2021/12/19 01:03:44;;;;;;;3.05;1.77;;;8.90;76.40;;;;;;5113941;27;20420;-62
2021/12/19 01:06:12;;;;;;;2.63;1.85;;;9.00;76.60;;;;;;5088002;28;20127;-62
2021/12/19 01:08:40;;;;;;;3.13;1.83;;;9.00;76.50;;;;;;5105227;28;20048;-63
2021/12/19 01:11:08;;;;;;;3.40;1.70;;;9.00;76.70;;;;;;5109409;28;20028;-62
2021/12/19 01:13:35;;;;;;;2.63;1.92;;;9.00;77.00;;;;;;5111782;28;20031;-62
2021/12/19 01:16:03;;;;;;;3.03;1.90;;;9.00;77.30;;;;;;5108588;28;20134;-62
2021/12/19 01:18:30;;;;;;;2.80;1.90;;;9.10;77.70;;;;;;5096169;28;20024;-62
2021/12/19 01:20:58;;;;;;;4.82;1.80;;;9.10;77.90;;;;;;5085820;28;20070;-62
2021/12/19 01:23:26;;;;;;;2.65;1.65;;;9.10;78.40;;;;;;5096489;28;20556;-62
2021/12/19 01:25:54;;;;;;;2.03;1.65;;;9.10;78.70;;;;;;5104337;28;20063;-62
2021/12/19 01:28:21;;;;;;;2.65;1.52;;;9.10;79.20;;;;;;5121697;27;20576;-63
2021/12/19 01:30:49;;;;;;;2.78;1.60;;;9.10;79.80;;;;;;5077128;28;20065;-63
2021/12/19 01:33:17;;;;;;;3.75;2.22;;;9.10;80.10;;;;;;5113389;28;20032;-63
2021/12/19 01:35:44;;;;;;;3.80;1.67;;;9.10;80.60;;;;;;5097707;28;20033;-63
2021/12/19 01:38:12;;;;;;;4.18;1.70;;;9.10;81.10;;;;;;5102249;28;20040;-63
2021/12/19 01:40:40;;;;;;;3.60;1.35;;;9.10;81.40;;;;;;5068976;28;20052;-64
2021/12/19 01:43:07;;;;;;;4.93;1.60;;;9.10;81.70;;;;;;5076434;28;20046;-63
2021/12/19 01:45:38;;;;;;;2.40;1.45;;;9.10;82.20;;;;;;5092118;28;20054;-63
2021/12/19 01:48:10;;;;;;;3.88;1.50;;;9.00;82.50;;;;;;5097058;27;20035;-63
2021/12/19 01:50:39;;;;;;;4.63;1.60;;;9.00;82.80;;;;;;5071418;28;20047;-63
2021/12/19 01:53:11;;;;;;;2.78;1.95;;;9.00;83.30;;;;;;5089500;28;20509;-62
2021/12/19 01:55:40;;;;;;;17.85;2.60;;;9.00;83.50;;;;;;5111148;28;20039;-63
2021/12/19 01:58:09;;;;;;;2.58;1.63;;;9.00;83.80;;;;;;5110384;28;20036;-62
2021/12/19 02:00:53;;;;;;;2.88;1.63;;;9.00;84.20;;;;;;5122813;27;20426;-63
2021/12/19 02:03:22;;;;;;;6.65;2.20;;;9.00;84.50;;;;;;5104487;28;20041;-63
2021/12/19 02:05:51;;;;;;;2.10;1.48;;;9.00;84.80;;;;;;5107497;28;20345;-63
2021/12/19 02:08:19;;;;;;;3.72;1.80;;;9.00;85.10;;;;;;5110329;28;20366;-63
2021/12/19 02:10:46;;;;;;;3.20;1.52;;;9.00;85.20;;;;;;5080115;28;20142;-63
2021/12/19 02:13:16;;;;;;;2.67;1.73;;;9.00;85.20;;;;;;5115323;28;20078;-62
2021/12/19 02:15:45;;;;;;;2.78;2.05;;;9.00;85.50;;;;;;5114545;28;20043;-62
2021/12/19 02:18:19;;;;;;;3.60;1.67;;;8.90;85.70;;;;;;5096561;28;20043;-62
2021/12/19 02:20:54;;;;;;;2.85;2.03;;;8.90;85.60;;;;;;5097066;28;20432;-62
2021/12/19 02:23:24;;;;;;;2.38;1.38;;;8.90;85.70;;;;;;5096729;28;20420;-62
2021/12/19 02:25:53;;;;;;;2.70;2.03;;;8.90;85.90;;;;;;5096863;28;20465;-62
2021/12/19 02:28:21;;;;;;;3.75;1.85;;;8.90;85.90;;;;;;5096751;28;20043;-62
2021/12/19 02:30:50;;;;;;;2.67;1.60;;;8.90;86.00;;;;;;5096870;28;20126;-62
2021/12/19 02:33:22;;;;;;;2.65;1.60;;;8.90;86.30;;;;;;5096639;28;20043;-63
2021/12/19 02:36:00;;;;;;;2.70;1.88;;;8.90;86.40;;;;;;5114873;28;20035;-62
2021/12/19 02:49:33;;;;;;;2.75;1.58;;;8.90;86.80;;;;;;5114527;28;20039;-62
2021/12/19 02:52:03;;;;;;;2.83;2.10;;;8.90;86.80;;;;;;5114487;28;20036;-62
2021/12/19 02:54:31;;;;;;;2.50;1.60;;;8.90;86.90;;;;;;5114646;28;20063;-62
2021/12/19 02:56:59;;;;;;;3.42;1.80;;;8.90;87.00;;;;;;5096099;28;20039;-62
2021/12/19 02:59:26;;;;;;;4.47;2.38;;;8.80;87.00;;;;;;5114227;28;20047;-62
2021/12/19 03:01:54;;;;;;;2.58;1.75;;;8.90;87.10;;;;;;5084920;28;20040;-62
2021/12/19 03:04:22;;;;;;;4.60;1.73;;;8.90;87.30;;;;;;5097158;28;20493;-62
2021/12/19 03:06:50;;;;;;;3.17;1.67;;;8.90;87.50;;;;;;5114453;28;20039;-62
2021/12/19 03:09:36;;;;;;;6.25;1.73;;;8.90;87.40;;;;;;5096524;28;20043;-62
2021/12/19 03:12:25;;;;;;;2.60;1.50;;;8.90;87.70;;;;;;5114515;28;20035;-62
2021/12/19 03:20:27;;;;;;;3.70;1.77;;;8.90;88.40;;;;;;5114347;28;20035;-62
2021/12/19 03:22:56;;;;;;;4.45;2.20;;;8.80;88.70;;;;;;5114072;28;20036;-62
2021/12/19 03:25:23;;;;;;;2.72;1.88;;;8.80;89.00;;;;;;5114032;28;20031;-62
2021/12/19 03:27:51;;;;;;;3.42;1.88;;;8.80;89.20;;;;;;5114036;28;20067;-62
2021/12/19 03:30:19;;;;;;;5.10;2.20;;;8.70;89.30;;;;;;5114105;28;20035;-62
2021/12/19 03:32:47;;;;;;;2.15;1.48;;;8.70;89.50;;;;;;5112687;28;20089;-62
2021/12/19 03:35:15;;;;;;;2.90;1.58;;;8.70;89.40;;;;;;5112876;28;20032;-62
2021/12/19 03:37:43;;;;;;;3.92;1.85;;;8.70;89.40;;;;;;5112756;28;20466;-62
2021/12/19 03:40:14;;;;;;;2.70;1.83;;;8.70;89.70;;;;;;5095830;28;20081;-62
2021/12/19 03:42:47;;;;;;;3.45;2.08;;;8.70;89.70;;;;;;5112957;28;20044;-62
2021/12/19 03:45:19;;;;;;;5.97;2.33;;;8.70;89.80;;;;;;5113938;28;20500;-62
2021/12/19 03:47:48;;;;;;;3.03;1.98;;;8.70;90.20;;;;;;5113163;28;20078;-62
2021/12/19 03:50:21;;;;;;;2.67;1.65;;;8.70;90.00;;;;;;5112920;28;20028;-62
2021/12/19 03:52:54;;;;;;;4.25;2.17;;;8.70;90.00;;;;;;5112773;28;20040;-62
2021/12/19 03:55:24;;;;;;;2.60;1.55;;;8.60;90.00;;;;;;5113862;28;20043;-62
2021/12/19 03:57:52;;;;;;;2.20;1.38;;;8.60;90.00;;;;;;5113703;28;20067;-63
2021/12/19 04:00:26;;;;;;;3.08;1.67;;;8.60;89.80;;;;;;5113810;28;20524;-62
2021/12/19 04:02:56;;;;;;;2.63;1.75;;;8.60;89.80;;;;;;5079161;28;20138;-62
2021/12/19 04:05:24;;;;;;;3.78;2.28;;;8.60;89.80;;;;;;5113501;28;20134;-62
2021/12/19 04:07:53;;;;;;;7.13;2.55;;;8.60;89.90;;;;;;5078421;28;20385;-62
2021/12/19 04:10:22;;;;;;;3.30;1.60;;;8.60;89.90;;;;;;5113585;28;20035;-62
2021/12/19 04:12:50;;;;;;;2.97;1.63;;;8.60;90.00;;;;;;5113780;28;20046;-62
2021/12/19 04:15:18;;;;;;;4.15;2.22;;;8.60;90.00;;;;;;5113602;28;20032;-62
2021/12/19 04:17:45;;;;;;;3.53;2.10;;;8.60;89.90;;;;;;5113583;28;20039;-62
2021/12/19 04:20:15;;;;;;;3.58;2.20;;;8.50;89.90;;;;;;5095523;28;20497;-62
2021/12/19 04:22:44;;;;;;;2.70;2.00;;;8.50;89.90;;;;;;5113595;28;20036;-62
2021/12/19 04:25:12;;;;;;;3.85;1.73;;;8.50;90.00;;;;;;5113332;28;20496;-62
2021/12/19 04:27:41;;;;;;;3.13;1.80;;;8.50;90.00;;;;;;5113977;28;20419;-62
2021/12/19 04:30:11;;;;;;;4.75;2.00;;;8.50;90.20;;;;;;5099263;28;20054;-62
2021/12/19 04:32:44;;;;;;;3.22;1.70;;;8.50;90.30;;;;;;5117179;28;20032;-62
2021/12/19 04:35:13;;;;;;;3.33;1.52;;;8.50;90.40;;;;;;5117256;28;20043;-62
2021/12/19 04:40:37;;;;;;;3.35;2.00;;;8.50;90.50;;;;;;5117150;28;20057;-62
2021/12/19 05:15:37;;;;;;;6.05;1.92;;;8.40;90.80;;;;;;5081205;28;20805;-62
2021/12/19 05:18:09;;;;;;;3.72;2.20;;;8.40;90.80;;;;;;5098276;28;20043;-62
2021/12/19 05:20:39;;;;;;;2.97;1.80;;;8.40;91.10;;;;;;5116437;28;20047;-62
2021/12/19 05:23:20;;;;;;;2.83;1.85;;;8.40;90.80;;;;;;5098254;28;20127;-62
2021/12/19 05:25:47;;;;;;;3.72;1.80;;;8.40;90.80;;;;;;5116442;28;20036;-62
2021/12/19 05:28:15;;;;;;;3.35;2.28;;;8.40;90.70;;;;;;5115997;28;20039;-63
2021/12/19 05:30:42;;;;;;;3.00;1.52;;;8.40;90.80;;;;;;5116127;28;20088;-63
2021/12/19 05:33:10;;;;;;;3.38;2.00;;;8.40;90.90;;;;;;5115981;28;20069;-62
2021/12/19 05:46:42;;;;;;;4.97;2.92;;;8.30;90.80;;;;;;5097652;28;20075;-63
2021/12/19 05:49:10;;;;;;;4.85;2.83;;;8.30;90.90;;;;;;5115543;28;20474;-64
2021/12/19 05:51:38;;;;;;;4.32;2.85;;;8.20;90.90;;;;;;5097497;28;20481;-62
2021/12/19 05:54:08;;;;;;;5.80;2.70;;;8.10;90.90;;;;;;5097567;28;20063;-62
2021/12/19 05:56:37;;;;;;;2.83;1.77;;;8.10;90.90;;;;;;5115603;28;20039;-63
2021/12/19 05:59:06;;;;;;;3.33;2.00;;;8.10;90.90;;;;;;5115345;28;20039;-63
2021/12/19 06:01:34;;;;;;;2.95;1.90;;;8.00;91.00;;;;;;5097282;28;20028;-62
2021/12/19 06:04:01;;;;;;;3.10;1.65;;;7.90;90.90;;;;;;5097125;28;20093;-62
2021/12/19 06:06:29;;;;;;;3.97;1.95;;;7.90;91.00;;;;;;5115435;28;20371;-63
2021/12/19 06:08:57;;;;;;;3.92;1.90;;;7.90;91.20;;;;;;5097014;28;20542;-62
2021/12/19 06:11:24;;;;;;;2.72;1.95;;;7.80;91.30;;;;;;5097144;28;20419;-62
2021/12/19 06:13:52;;;;;;;4.40;2.05;;;7.80;91.30;;;;;;5115047;28;20070;-62
2021/12/19 06:16:19;;;;;;;4.43;2.30;;;7.80;91.20;;;;;;5096903;28;20335;-62
2021/12/19 06:18:47;;;;;;;6.50;2.00;;;7.80;91.30;;;;;;5115166;28;20051;-63
2021/12/19 06:21:14;;;;;;;4.95;3.08;;;7.80;91.40;;;;;;5080320;28;20438;-62
2021/12/19 06:23:42;;;;;;;4.00;2.20;;;7.80;91.40;;;;;;5080006;28;20054;-63
2021/12/19 06:26:11;;;;;;;3.13;2.00;;;7.90;91.40;;;;;;5115079;28;20038;-62
2021/12/19 06:28:39;;;;;;;4.22;2.17;;;7.90;91.20;;;;;;5115004;28;20144;-62
2021/12/19 06:31:07;;;;;;;3.15;1.90;;;7.90;91.10;;;;;;5114793;28;20036;-62
2021/12/19 06:33:35;;;;;;;6.43;2.83;;;7.90;91.20;;;;;;5114982;28;20108;-62
2021/12/19 06:36:03;;;;;;;4.65;2.63;;;8.10;91.40;;;;;;5080193;28;20053;-61
2021/12/19 06:38:31;;;;;;;5.03;3.22;;;8.30;90.90;;;;;;5096919;28;20036;-62
2021/12/19 06:40:58;;;;;;;4.60;3.30;;;8.50;90.70;;;;;;5114865;28;20039;-62
2021/12/19 06:43:28;;;;;;;5.43;4.65;;;8.80;90.60;;;;;;5114707;28;20036;-62
2021/12/19 06:45:56;;;;;;;4.93;3.40;;;9.60;90.00;;;;;;5101211;28;20035;-64
2021/12/19 06:48:24;;;;;;;5.68;3.20;;;10.90;86.90;;;;;;5106982;28;20085;-63
2021/12/19 06:50:53;;;;;;;4.45;2.97;;;11.90;83.60;;;;;;5089837;28;20145;-63
2021/12/19 06:53:20;;;;;;;4.60;2.75;;;12.10;82.70;;;;;;5108001;28;20032;-63
2021/12/19 06:55:49;;;;;;;4.13;2.63;;;12.40;82.10;;;;;;5124016;27;20039;-63
2021/12/19 06:58:16;;;;;;;5.82;2.47;;;12.90;81.20;;;;;;5123560;27;20058;-62
2021/12/19 07:00:44;;;;;;;4.53;3.20;;;13.80;79.60;;;;;;5104585;27;20050;-62
2021/12/19 07:03:14;;;;;;;6.20;3.28;;;15.00;76.80;;;;;;5060345;28;20044;-62
2021/12/19 07:05:43;;;;;;;6.68;2.83;;;16.00;74.80;;;;;;5112709;28;20370;-63
2021/12/19 07:08:10;;;;;;;3.67;2.40;;;17.00;72.90;;;;;;5091854;28;20051;-63
2021/12/19 07:10:38;;;;;;;4.75;2.42;;;17.80;71.20;;;;;;5084660;28;20043;-62
2021/12/19 07:13:06;;;;;;;3.72;2.05;;;18.60;69.80;;;;;;5095444;28;20112;-62
2021/12/19 07:15:33;;;;;;;3.38;2.17;;;19.10;68.60;;;;;;5096600;28;20039;-62
2021/12/19 07:18:04;;;;;;;5.57;2.88;;;19.60;67.80;;;;;;5114227;28;20032;-68
2021/12/19 07:20:32;;;;;;;4.57;2.78;;;20.10;67.40;;;;;;5079639;28;20035;-63
2021/12/19 07:22:59;;;;;;;6.13;4.53;;;20.50;66.20;;;;;;5114096;28;20036;-62
2021/12/19 07:25:27;;;;;;;12.35;8.32;;;20.80;65.60;;;;;;5114006;28;20540;-63
2021/12/19 07:27:54;;;;;;;19.73;13.60;;;21.10;64.80;;;;;;5114033;28;20474;-63
2021/12/19 07:30:25;;;;;;;23.10;17.90;;;21.40;64.30;;;;;;5114049;28;20434;-63
2021/12/19 07:32:55;;;;;;;46.22;31.13;;;21.60;64.10;;;;;;5095956;28;20049;-63
2021/12/19 07:35:23;;;;;;;67.85;43.28;;;21.80;63.50;;;;;;5113998;28;20467;-63
2021/12/19 07:37:52;;;;;;;73.97;46.38;;;21.90;63.10;;;;;;5114037;28;20050;-63
2021/12/19 07:40:22;;;;;;;70.75;44.08;;;22.00;63.10;;;;;;5096128;28;20040;-63
2021/12/19 07:42:52;;;;;;;48.30;31.10;;;22.00;62.90;;;;;;5079177;28;20047;-63
2021/12/19 07:45:20;;;;;;;38.63;23.70;;;21.80;63.10;;;;;;5095901;28;20127;-63
2021/12/19 07:47:47;;;;;;;34.40;19.15;;;21.70;63.30;;;;;;5096031;28;20377;-64
2021/12/19 07:50:16;;;;;;;16.92;11.63;;;21.60;63.30;;;;;;5095943;28;20064;-63
2021/12/19 07:52:43;;;;;;;14.30;8.50;;;21.40;63.30;;;;;;5095699;28;20400;-63
2021/12/19 07:55:11;;;;;;;12.82;7.85;;;21.10;63.70;;;;;;5113858;28;20122;-63
2021/12/19 07:57:40;;;;;;;14.35;7.72;;;20.80;64.10;;;;;;5113720;28;20035;-63
2021/12/19 08:00:10;;;;;;;12.40;7.57;;;20.40;64.60;;;;;;5113581;28;20035;-63
2021/12/19 08:02:47;;;;;;;7.53;4.97;;;20.10;65.20;;;;;;5096522;28;20130;-63
2021/12/19 08:05:16;;;;;;;8.55;5.00;;;19.70;65.80;;;;;;5099105;28;20051;-63
2021/12/19 08:07:47;;;;;;;5.75;3.90;;;19.40;66.40;;;;;;5083170;28;20477;-64
2021/12/19 08:12:46;;;;;;;5.10;3.70;;;19.00;67.20;;;;;;5099475;28;20049;-63
2021/12/19 08:15:15;;;;;;;5.38;3.13;;;18.90;67.50;;;;;;5099483;28;20134;-64
2021/12/19 08:17:43;;;;;;;4.82;2.67;;;18.70;67.90;;;;;;5099244;28;20051;-64
2021/12/19 08:20:11;;;;;;;4.00;2.83;;;18.50;68.30;;;;;;5117358;28;20093;-63
2021/12/19 08:22:39;;;;;;;4.18;2.70;;;18.40;68.80;;;;;;5117407;28;20486;-63
2021/12/19 08:25:07;;;;;;;4.85;3.15;;;18.30;69.10;;;;;;5098923;28;20051;-63
2021/12/19 08:27:37;;;;;;;4.43;3.17;;;18.10;69.30;;;;;;5117361;28;20044;-64
2021/12/19 08:30:07;;;;;;;4.93;2.88;;;18.00;69.80;;;;;;5117434;28;20035;-63
2021/12/19 08:32:36;;;;;;;4.15;2.65;;;17.70;70.40;;;;;;5117277;28;20036;-64
2021/12/19 08:35:05;;;;;;;3.92;2.35;;;17.40;71.00;;;;;;5117305;28;20043;-63
2021/12/19 08:37:33;;;;;;;11.00;3.70;;;17.10;71.00;;;;;;5117214;28;20043;-63
2021/12/19 08:40:01;;;;;;;5.72;3.53;;;16.70;71.50;;;;;;5117036;28;20416;-63
2021/12/19 08:42:31;;;;;;;5.68;3.22;;;16.40;72.50;;;;;;5117023;28;20044;-64
2021/12/19 08:44:59;;;;;;;6.45;2.78;;;16.20;72.90;;;;;;5098846;28;20031;-63
2021/12/19 08:47:27;;;;;;;5.05;2.67;;;15.90;73.40;;;;;;5117037;28;20036;-64
2021/12/19 08:49:55;;;;;;;4.00;2.90;;;15.80;74.00;;;;;;5099077;28;20074;-63
2021/12/19 08:52:22;;;;;;;4.70;2.53;;;15.50;73.60;;;;;;5116954;28;20096;-63
2021/12/19 08:54:50;;;;;;;3.72;2.42;;;15.30;72.70;;;;;;5116644;28;20512;-63
2021/12/19 08:57:17;;;;;;;4.55;2.25;;;15.00;72.60;;;;;;5098589;28;20500;-63
2021/12/19 08:59:45;;;;;;;2.88;2.00;;;15.00;73.10;;;;;;5116554;28;20035;-63
2021/12/19 09:02:13;;;;;;;3.58;2.40;;;14.90;73.50;;;;;;5098800;28;20393;-63
2021/12/19 09:04:40;;;;;;;4.32;2.25;;;14.80;73.60;;;;;;5116391;28;20043;-63
2021/12/19 09:07:08;;;;;;;4.57;2.35;;;14.70;73.30;;;;;;5116593;28;20036;-63
2021/12/19 09:09:36;;;;;;;3.85;1.80;;;14.60;73.60;;;;;;5098457;28;20070;-63
2021/12/19 09:12:04;;;;;;;3.88;2.10;;;14.40;73.50;;;;;;5098452;28;20039;-63
2021/12/19 09:14:32;;;;;;;2.88;1.90;;;14.50;73.70;;;;;;5115811;28;20036;-63
2021/12/19 09:17:01;;;;;;;3.03;2.05;;;14.30;73.30;;;;;;5116425;28;20126;-63
2021/12/19 09:19:29;;;;;;;2.97;1.85;;;14.20;72.80;;;;;;5098156;28;20056;-63
2021/12/19 09:21:57;;;;;;;4.03;1.90;;;14.20;73.40;;;;;;5097974;28;20072;-63
2021/12/19 09:24:24;;;;;;;5.82;2.65;;;14.10;73.70;;;;;;5116341;28;20040;-64
2021/12/19 09:26:52;;;;;;;3.25;1.90;;;14.20;74.20;;;;;;5097561;28;20040;-63
2021/12/19 09:29:20;;;;;;;3.78;2.33;;;14.20;74.20;;;;;;5081197;28;20111;-63
2021/12/19 09:31:47;;;;;;;2.90;1.80;;;14.20;73.90;;;;;;5116106;28;20127;-64
2021/12/19 09:34:15;;;;;;;8.70;2.63;;;14.10;73.70;;;;;;5116038;28;20039;-63
2021/12/19 09:36:42;;;;;;;4.30;2.45;;;14.10;75.10;;;;;;5080740;28;20138;-64
2021/12/19 09:39:10;;;;;;;7.97;2.72;;;14.10;75.60;;;;;;5097813;28;20036;-63
2021/12/19 09:41:43;;;;;;;4.40;2.42;;;14.00;75.60;;;;;;5115784;28;20132;-61
2021/12/19 09:44:14;;;;;;;3.08;1.77;;;14.10;74.90;;;;;;5115994;28;20035;-62
2021/12/19 09:46:44;;;;;;;4.35;2.40;;;14.00;75.00;;;;;;5115780;28;20039;-61
2021/12/19 09:49:14;;;;;;;4.22;2.38;;;13.90;75.20;;;;;;5115593;28;20044;-61
2021/12/19 09:51:42;;;;;;;6.22;2.13;;;13.80;75.30;;;;;;5096954;28;20568;-62
2021/12/19 09:54:11;;;;;;;6.10;3.60;;;13.70;75.40;;;;;;5115429;28;20036;-61
2021/12/19 09:56:41;;;;;;;4.38;2.80;;;13.70;75.90;;;;;;5097646;28;20043;-61
2021/12/19 09:59:15;;;;;;;4.97;3.00;;;13.80;75.10;;;;;;5115498;28;20400;-62
2021/12/19 10:01:43;;;;;;;6.00;2.70;;;13.90;75.40;;;;;;5115492;28;20096;-61
2021/12/19 10:04:39;;;;;;;3.38;2.10;;;14.00;75.40;;;;;;5115383;28;20143;-62
2021/12/19 10:07:19;;;;;;;7.38;3.90;;;14.20;75.30;;;;;;5115257;28;20421;-61
2021/12/19 10:10:03;;;;;;;5.72;3.15;;;14.20;74.30;;;;;;5115665;28;20040;-61
2021/12/19 10:12:51;;;;;;;3.47;2.10;;;14.30;74.70;;;;;;5097358;28;20040;-61
2021/12/19 10:15:41;;;;;;;3.90;2.35;;;14.40;74.50;;;;;;5097090;28;20040;-62
2021/12/19 10:18:12;;;;;;;5.13;3.35;;;14.40;75.10;;;;;;5115357;28;20081;-62
2021/12/19 10:20:46;;;;;;;4.25;2.92;;;14.50;75.10;;;;;;5115172;28;20050;-62
2021/12/19 10:23:18;;;;;;;3.47;2.45;;;14.50;75.00;;;;;;5115203;28;20368;-62
2021/12/19 10:26:06;;;;;;;3.63;2.42;;;14.60;75.00;;;;;;5114409;28;20067;-61
2021/12/19 10:28:51;;;;;;;3.15;2.10;;;14.70;74.80;;;;;;5096316;28;20505;-62
2021/12/19 10:31:20;;;;;;;5.78;3.00;;;14.70;74.30;;;;;;5114896;28;20351;-61
2021/12/19 10:33:48;;;;;;;5.13;2.47;;;14.80;74.50;;;;;;5097154;28;20036;-61
2021/12/19 10:36:19;;;;;;;3.65;2.38;;;14.70;74.30;;;;;;5079629;28;20358;-62
2021/12/19 10:38:50;;;;;;;3.95;2.40;;;14.60;74.60;;;;;;5080099;28;20448;-61
2021/12/19 10:41:22;;;;;;;4.25;2.28;;;14.60;74.70;;;;;;5114889;28;20085;-62
2021/12/19 10:44:04;;;;;;;5.20;2.67;;;14.50;74.10;;;;;;5115047;28;20039;-62
2021/12/19 10:46:36;;;;;;;4.60;2.42;;;14.40;74.40;;;;;;5114669;28;20051;-61
2021/12/19 10:49:05;;;;;;;3.92;2.42;;;14.40;75.20;;;;;;5114724;28;20493;-61
2021/12/19 10:51:39;;;;;;;3.88;2.38;;;14.40;75.40;;;;;;5114598;28;20031;-61
2021/12/19 10:54:07;;;;;;;4.03;2.10;;;14.30;75.50;;;;;;5114464;28;20054;-61
2021/12/19 10:56:37;;;;;;;7.22;3.28;;;14.40;75.80;;;;;;5114505;28;20047;-61
2021/12/19 10:59:07;;;;;;;4.68;2.80;;;14.40;75.60;;;;;;5096489;28;20039;-62
2021/12/19 11:01:44;;;;;;;5.95;3.50;;;14.40;75.60;;;;;;5114635;28;20380;-62
2021/12/19 11:04:19;;;;;;;7.00;4.20;;;14.10;75.60;;;;;;5114445;28;20044;-62
2021/12/19 11:06:58;;;;;;;6.50;4.68;;;14.10;76.40;;;;;;5114211;28;20034;-62
2021/12/19 11:09:29;;;;;;;5.03;3.80;;;14.10;76.30;;;;;;5114403;28;20036;-62
2021/12/19 11:12:11;;;;;;;7.90;3.60;;;14.00;76.70;;;;;;5096176;28;20047;-62
2021/12/19 11:14:39;;;;;;;5.85;3.50;;;14.20;77.30;;;;;;5114231;28;20081;-62
2021/12/19 11:17:10;;;;;;;5.22;3.25;;;14.20;77.20;;;;;;5095994;28;20031;-62
2021/12/19 11:19:39;;;;;;;4.30;2.85;;;14.20;77.50;;;;;;5096182;28;20047;-61
2021/12/19 11:22:23;;;;;;;;;;;14.30;77.50;;;;;;5114468;28;20366;-62
2021/12/19 11:25:04;;;;;;;4.47;3.05;;;14.40;77.30;;;;;;5114306;28;19965;-62
2021/12/19 11:27:33;;;;;;;3.83;2.72;;;14.30;77.30;;;;;;5096116;28;20365;-62
2021/12/19 11:30:02;;;;;;;4.85;3.35;;;14.20;77.40;;;;;;5114044;28;20054;-62
2021/12/19 11:32:45;;;;;;;5.80;2.85;;;14.20;78.00;;;;;;5095199;28;20070;-62
2021/12/19 11:35:20;;;;;;;5.50;3.83;;;14.30;77.80;;;;;;5114035;28;20362;-62
2021/12/19 11:37:55;;;;;;;10.85;6.07;;;14.10;77.70;;;;;;5114760;28;20080;-62
2021/12/19 11:40:24;;;;;;;9.60;4.45;;;14.20;78.50;;;;;;5118158;28;20041;-62
2021/12/19 11:43:05;;;;;;;5.80;4.47;;;14.10;78.90;;;;;;5118113;28;20045;-62
2021/12/19 11:45:37;;;;;;;5.00;3.22;;;14.20;78.70;;;;;;5117936;28;20036;-62
2021/12/19 11:48:16;;;;;;;7.65;3.08;;;14.30;78.50;;;;;;5100084;28;20078;-62
2021/12/19 11:50:53;;;;;;;5.07;2.80;;;14.30;77.90;;;;;;5118052;28;20474;-61
2021/12/19 11:53:22;;;;;;;4.50;2.92;;;14.20;78.70;;;;;;5117983;28;20062;-62
2021/12/19 11:56:08;;;;;;;4.57;3.00;;;14.20;78.90;;;;;;5117870;28;20074;-61
2021/12/19 11:58:50;;;;;;;4.80;3.13;;;14.30;78.90;;;;;;5117858;28;20097;-61
2021/12/19 12:01:34;;;;;;;4.03;2.78;;;14.20;78.80;;;;;;5082734;28;20285;-61
2021/12/19 12:04:11;;;;;;;5.72;3.50;;;14.10;78.80;;;;;;5117642;28;20117;-61
2021/12/19 12:06:40;;;;;;;4.22;2.53;;;14.10;79.60;;;;;;5099403;28;20050;-61
2021/12/19 12:09:32;;;;;;;3.53;2.20;;;14.20;79.70;;;;;;5100006;28;20429;-62
2021/12/19 12:12:00;;;;;;;5.25;3.08;;;14.20;79.90;;;;;;5099451;28;20035;-62
2021/12/19 12:14:31;;;;;;;5.18;3.60;;;14.10;80.20;;;;;;5099259;28;20032;-62
2021/12/19 12:17:05;;;;;;;5.68;3.60;;;14.10;80.30;;;;;;5117630;28;20043;-61
2021/12/19 12:19:55;;;;;;;5.50;3.20;;;14.10;80.50;;;;;;5099090;28;20063;-59
2021/12/19 12:22:34;;;;;;;7.15;3.70;;;14.10;81.10;;;;;;5099220;28;20044;-61
2021/12/19 12:25:05;;;;;;;4.53;2.83;;;14.10;81.00;;;;;;5117181;28;20035;-61
2021/12/19 12:27:41;;;;;;;4.15;2.45;;;14.20;81.00;;;;;;5082268;28;20481;-61
2021/12/19 12:30:31;;;;;;;5.13;3.55;;;14.10;80.90;;;;;;5116919;28;20067;-61
2021/12/19 12:33:01;;;;;;;6.03;4.22;;;14.10;81.10;;;;;;5081812;28;20040;-62
2021/12/19 12:35:36;;;;;;;7.97;3.40;;;13.90;81.60;;;;;;5079195;28;20052;-62
2021/12/19 12:38:05;;;;;;;5.95;3.30;;;13.80;82.20;;;;;;5082157;28;20040;-62
2021/12/19 12:40:45;;;;;;;5.97;3.03;;;13.80;82.50;;;;;;5098570;28;20043;-61
2021/12/19 12:43:32;;;;;;;5.45;2.75;;;13.80;82.90;;;;;;5116781;28;20043;-61
2021/12/19 12:46:10;;;;;;;5.63;3.20;;;13.80;82.80;;;;;;5117051;28;20074;-61
2021/12/19 12:48:40;;;;;;;6.32;3.58;;;13.90;82.90;;;;;;5115904;28;20042;-61
2021/12/19 12:51:17;;;;;;;4.07;3.10;;;13.80;83.10;;;;;;5116738;28;20039;-61
2021/12/19 12:53:48;;;;;;;5.05;3.20;;;13.90;83.50;;;;;;5098444;28;20035;-61
2021/12/19 12:56:20;;;;;;;7.05;3.60;;;13.80;83.20;;;;;;5116720;28;20036;-61
2021/12/19 12:58:55;;;;;;;6.22;4.25;;;13.90;83.70;;;;;;5116705;28;20389;-61
2021/12/19 13:01:29;;;;;;;;;;;13.80;83.90;;;;;;5116814;28;20123;-61
2021/12/19 13:04:06;;;;;;;5.20;3.35;;;13.70;84.10;;;;;;5116062;28;19959;-62
2021/12/19 13:06:45;;;;;;;6.88;4.13;;;13.60;84.60;;;;;;5098217;28;20043;-62
2021/12/19 13:09:20;;;;;;;4.78;3.17;;;13.60;85.30;;;;;;5097746;28;20075;-61
2021/12/19 13:12:01;;;;;;;6.18;3.20;;;13.50;85.30;;;;;;5116919;28;20039;-61
2021/12/19 13:14:31;;;;;;;7.30;4.30;;;13.50;85.90;;;;;;5116185;28;20055;-61
2021/12/19 13:17:12;;;;;;;7.38;4.50;;;13.50;85.80;;;;;;5116327;28;20047;-61
2021/12/19 13:19:43;;;;;;;6.43;4.07;;;13.50;85.60;;;;;;5116073;28;20067;-61
2021/12/19 13:22:23;;;;;;;4.65;3.58;;;13.40;85.50;;;;;;5098295;28;20039;-61
2021/12/19 13:24:52;;;;;;;6.30;4.15;;;13.40;85.80;;;;;;5116059;28;20069;-61
2021/12/19 13:27:32;;;;;;;7.63;4.93;;;13.30;86.30;;;;;;5115827;28;20043;-61
2021/12/19 13:30:13;;;;;;;7.03;3.30;;;13.40;86.90;;;;;;5116000;28;20043;-61
2021/12/19 13:32:48;;;;;;;4.53;3.10;;;13.40;87.10;;;;;;5097840;28;20035;-61
2021/12/19 13:35:21;;;;;;;6.38;4.00;;;13.40;87.20;;;;;;5115980;28;20114;-62
2021/12/19 13:37:56;;;;;;;6.40;3.85;;;13.40;87.60;;;;;;5097629;28;20044;-62
2021/12/19 13:40:35;;;;;;;6.00;3.30;;;13.30;87.80;;;;;;5097490;28;20032;-62
2021/12/19 13:43:24;;;;;;;7.10;3.78;;;13.30;87.70;;;;;;5081348;28;20477;-62
2021/12/19 13:45:52;;;;;;;5.05;3.45;;;13.30;87.50;;;;;;5080983;28;20043;-62
2021/12/19 13:48:27;;;;;;;3.95;3.10;;;13.20;87.90;;;;;;5115855;28;20146;-61
2021/12/19 13:51:03;;;;;;;6.25;4.30;;;13.20;87.90;;;;;;5097696;28;20036;-62
2021/12/19 13:53:36;;;;;;;5.25;4.10;;;13.00;88.10;;;;;;5115713;28;20031;-62
2021/12/19 13:56:10;;;;;;;10.07;5.25;;;13.00;88.20;;;;;;5080822;28;20489;-62
2021/12/19 13:58:44;;;;;;;7.97;5.55;;;12.90;88.50;;;;;;5115581;28;20071;-61
2021/12/19 14:01:15;;;;;;;9.55;6.13;;;12.90;88.80;;;;;;5114542;28;20048;-62
2021/12/19 14:03:54;;;;;;;7.00;4.43;;;12.90;89.10;;;;;;5097276;28;20046;-62
2021/12/19 14:06:30;;;;;;;5.97;3.60;;;12.80;89.10;;;;;;5115131;28;20036;-62
2021/12/19 14:09:10;;;;;;;5.35;4.22;;;12.70;89.30;;;;;;5114924;28;20100;-62
2021/12/19 14:11:43;;;;;;;7.05;4.20;;;12.70;89.70;;;;;;5115354;28;20122;-62
2021/12/19 14:14:25;;;;;;;5.55;3.38;;;12.70;90.00;;;;;;5115238;28;20477;-61
2021/12/19 14:16:59;;;;;;;4.10;2.75;;;12.60;90.00;;;;;;5097399;28;20092;-62
2021/12/19 14:19:29;;;;;;;5.07;3.92;;;12.60;90.10;;;;;;5115178;28;20036;-62
2021/12/19 14:22:09;;;;;;;4.82;3.20;;;12.50;90.30;;;;;;5115204;28;20051;-61
2021/12/19 14:24:43;;;;;;;5.97;3.03;;;12.50;90.50;;;;;;5115352;28;20035;-62